sensor_id;sensor_type;location;lat;lon;timestamp;temperature;humidity
10070;DHT22;5074;53.720;10.014;2022-11-20T00:01:05;1.30;99.90
10070;DHT22;5074;53.720;10.014;2022-11-20T00:03:34;1.30;99.90
10070;DHT22;5074;53.720;10.014;2022-11-20T00:06:02;1.30;99.90
10070;DHT22;5074;53.720;10.014;2022-11-20T00:08:32;1.30;99.90
10070;DHT22;5074;53.720;10.014;2022-11-20T00:11:02;1.30;99.90
10070;DHT22;5074;53.720;10.014;2022-11-20T00:13:31;1.30;99.90
10070;DHT22;5074;53.720;10.014;2022-11-20T00:16:00;1.30;99.90
10070;DHT22;5074;53.720;10.014;2022-11-20T00:18:30;1.30;99.90
10070;DHT22;5074;53.720;10.014;2022-11-20T00:21:00;1.40;99.90
10070;DHT22;5074;53.720;10.014;2022-11-20T00:23:28;1.40;99.90
10070;DHT22;5074;53.720;10.014;2022-11-20T00:26:02;1.40;99.90
10070;DHT22;5074;53.720;10.014;2022-11-20T00:28:30;1.30;99.90
10070;DHT22;5074;53.720;10.014;2022-11-20T00:31:02;1.30;99.90
10070;DHT22;5074;53.720;10.014;2022-11-20T00:33:32;1.30;99.90
10070;DHT22;5074;53.720;10.014;2022-11-20T00:36:01;1.40;99.90
10070;DHT22;5074;53.720;10.014;2022-11-20T00:38:30;1.40;99.90
10070;DHT22;5074;53.720;10.014;2022-11-20T00:40:59;1.40;99.90
10070;DHT22;5074;53.720;10.014;2022-11-20T00:43:29;1.40;99.90
10070;DHT22;5074;53.720;10.014;2022-11-20T00:45:58;1.30;99.90
10070;DHT22;5074;53.720;10.014;2022-11-20T00:48:26;1.30;99.90
10070;DHT22;5074;53.720;10.014;2022-11-20T00:50:54;1.30;99.90
10070;DHT22;5074;53.720;10.014;2022-11-20T00:53:23;1.30;99.90
10070;DHT22;5074;53.720;10.014;2022-11-20T00:55:52;1.40;99.90
10070;DHT22;5074;53.720;10.014;2022-11-20T00:58:21;1.40;99.90
10070;DHT22;5074;53.720;10.014;2022-11-20T01:00:51;1.40;99.90
10070;DHT22;5074;53.720;10.014;2022-11-20T01:03:19;1.30;99.90
10070;DHT22;5074;53.720;10.014;2022-11-20T01:05:52;1.30;99.90
10070;DHT22;5074;53.720;10.014;2022-11-20T01:08:20;1.30;99.90
10070;DHT22;5074;53.720;10.014;2022-11-20T01:10:48;1.30;99.90
10070;DHT22;5074;53.720;10.014;2022-11-20T01:13:16;1.30;99.90
10070;DHT22;5074;53.720;10.014;2022-11-20T01:16:04;1.30;99.90
10070;DHT22;5074;53.720;10.014;2022-11-20T01:18:33;1.30;99.90
10070;DHT22;5074;53.720;10.014;2022-11-20T01:21:02;1.30;99.90
10070;DHT22;5074;53.720;10.014;2022-11-20T01:23:31;1.30;99.90
10070;DHT22;5074;53.720;10.014;2022-11-20T01:26:01;1.30;99.90
10070;DHT22;5074;53.720;10.014;2022-11-20T01:28:30;1.20;99.90
10070;DHT22;5074;53.720;10.014;2022-11-20T01:30:58;1.20;99.90
10070;DHT22;5074;53.720;10.014;2022-11-20T01:33:28;1.20;99.90
10070;DHT22;5074;53.720;10.014;2022-11-20T01:36:03;1.20;99.90
10070;DHT22;5074;53.720;10.014;2022-11-20T01:38:32;1.20;99.90
10070;DHT22;5074;53.720;10.014;2022-11-20T01:41:00;1.20;99.90
10070;DHT22;5074;53.720;10.014;2022-11-20T01:43:29;1.20;99.90
10070;DHT22;5074;53.720;10.014;2022-11-20T01:45:58;1.20;99.90
10070;DHT22;5074;53.720;10.014;2022-11-20T01:48:33;1.10;99.90
10070;DHT22;5074;53.720;10.014;2022-11-20T01:51:06;1.20;99.90
10070;DHT22;5074;53.720;10.014;2022-11-20T01:53:43;1.20;99.90
10070;DHT22;5074;53.720;10.014;2022-11-20T01:56:12;1.20;99.90
10070;DHT22;5074;53.720;10.014;2022-11-20T01:58:43;1.10;99.90
10070;DHT22;5074;53.720;10.014;2022-11-20T02:01:14;1.10;99.90
10070;DHT22;5074;53.720;10.014;2022-11-20T02:03:44;1.10;99.90
10070;DHT22;5074;53.720;10.014;2022-11-20T02:06:14;1.10;99.90
10070;DHT22;5074;53.720;10.014;2022-11-20T02:08:46;1.10;99.90
10070;DHT22;5074;53.720;10.014;2022-11-20T02:11:14;1.00;99.90
10070;DHT22;5074;53.720;10.014;2022-11-20T02:13:42;1.10;99.90
10070;DHT22;5074;53.720;10.014;2022-11-20T02:16:14;1.10;99.90
10070;DHT22;5074;53.720;10.014;2022-11-20T02:18:46;1.10;99.90
10070;DHT22;5074;53.720;10.014;2022-11-20T02:21:17;1.10;99.90
10070;DHT22;5074;53.720;10.014;2022-11-20T02:26:41;1.10;99.90
10070;DHT22;5074;53.720;10.014;2022-11-20T02:29:15;1.10;99.90
10070;DHT22;5074;53.720;10.014;2022-11-20T02:31:45;1.10;99.90
10070;DHT22;5074;53.720;10.014;2022-11-20T02:34:14;1.10;99.90
10070;DHT22;5074;53.720;10.014;2022-11-20T02:36:42;1.20;99.90
10070;DHT22;5074;53.720;10.014;2022-11-20T02:39:13;1.20;99.90
10070;DHT22;5074;53.720;10.014;2022-11-20T02:41:44;1.20;99.90
10070;DHT22;5074;53.720;10.014;2022-11-20T02:44:12;1.20;99.90
10070;DHT22;5074;53.720;10.014;2022-11-20T02:46:40;1.20;99.90
10070;DHT22;5074;53.720;10.014;2022-11-20T02:49:08;1.10;99.90
10070;DHT22;5074;53.720;10.014;2022-11-20T02:51:36;1.10;99.90
10070;DHT22;5074;53.720;10.014;2022-11-20T02:54:04;1.10;99.90
10070;DHT22;5074;53.720;10.014;2022-11-20T02:56:33;1.10;99.90
10070;DHT22;5074;53.720;10.014;2022-11-20T02:59:01;1.00;99.90
10070;DHT22;5074;53.720;10.014;2022-11-20T03:01:29;1.00;99.90
10070;DHT22;5074;53.720;10.014;2022-11-20T03:03:58;1.00;99.90
10070;DHT22;5074;53.720;10.014;2022-11-20T03:06:26;1.00;99.90
10070;DHT22;5074;53.720;10.014;2022-11-20T03:08:54;1.00;99.90
10070;DHT22;5074;53.720;10.014;2022-11-20T03:11:22;1.00;99.90
10070;DHT22;5074;53.720;10.014;2022-11-20T03:13:51;1.00;99.90
10070;DHT22;5074;53.720;10.014;2022-11-20T03:16:20;1.10;99.90
10070;DHT22;5074;53.720;10.014;2022-11-20T03:18:51;1.00;99.90
10070;DHT22;5074;53.720;10.014;2022-11-20T03:21:19;1.10;99.90
10070;DHT22;5074;53.720;10.014;2022-11-20T03:23:47;1.10;99.90
10070;DHT22;5074;53.720;10.014;2022-11-20T03:26:16;1.10;99.90
10070;DHT22;5074;53.720;10.014;2022-11-20T03:28:46;1.00;99.90
10070;DHT22;5074;53.720;10.014;2022-11-20T03:31:17;1.10;99.90
10070;DHT22;5074;53.720;10.014;2022-11-20T03:33:47;1.00;99.90
10070;DHT22;5074;53.720;10.014;2022-11-20T03:36:15;1.10;99.90
10070;DHT22;5074;53.720;10.014;2022-11-20T03:38:45;1.10;99.90
10070;DHT22;5074;53.720;10.014;2022-11-20T03:41:14;1.00;99.90
10070;DHT22;5074;53.720;10.014;2022-11-20T03:43:46;1.00;99.90
10070;DHT22;5074;53.720;10.014;2022-11-20T03:46:16;1.00;99.90
10070;DHT22;5074;53.720;10.014;2022-11-20T03:48:44;1.10;99.90
10070;DHT22;5074;53.720;10.014;2022-11-20T03:51:18;1.10;99.90
10070;DHT22;5074;53.720;10.014;2022-11-20T03:53:48;1.00;99.90
10070;DHT22;5074;53.720;10.014;2022-11-20T03:56:18;1.10;99.90
10070;DHT22;5074;53.720;10.014;2022-11-20T03:58:47;1.10;99.90
10070;DHT22;5074;53.720;10.014;2022-11-20T04:01:17;1.00;99.90
10070;DHT22;5074;53.720;10.014;2022-11-20T04:03:46;1.10;99.90
10070;DHT22;5074;53.720;10.014;2022-11-20T04:06:19;1.10;99.90
10070;DHT22;5074;53.720;10.014;2022-11-20T04:08:48;1.00;99.90
10070;DHT22;5074;53.720;10.014;2022-11-20T04:11:20;1.00;99.90
10070;DHT22;5074;53.720;10.014;2022-11-20T04:13:50;1.00;99.90
10070;DHT22;5074;53.720;10.014;2022-11-20T04:16:21;1.00;99.90
10070;DHT22;5074;53.720;10.014;2022-11-20T04:18:51;1.00;99.90
10070;DHT22;5074;53.720;10.014;2022-11-20T04:21:20;0.90;99.90
10070;DHT22;5074;53.720;10.014;2022-11-20T04:23:48;1.00;99.90
10070;DHT22;5074;53.720;10.014;2022-11-20T04:26:16;1.00;99.90
10070;DHT22;5074;53.720;10.014;2022-11-20T04:28:44;0.90;99.90
10070;DHT22;5074;53.720;10.014;2022-11-20T04:31:13;0.90;99.90
10070;DHT22;5074;53.720;10.014;2022-11-20T04:33:44;0.90;99.90
10070;DHT22;5074;53.720;10.014;2022-11-20T04:36:13;0.90;99.90
10070;DHT22;5074;53.720;10.014;2022-11-20T04:38:42;0.90;99.90
10070;DHT22;5074;53.720;10.014;2022-11-20T04:41:12;0.90;99.90
10070;DHT22;5074;53.720;10.014;2022-11-20T04:43:45;0.80;99.90
10070;DHT22;5074;53.720;10.014;2022-11-20T04:46:15;0.90;99.90
10070;DHT22;5074;53.720;10.014;2022-11-20T04:48:45;0.90;99.90
10070;DHT22;5074;53.720;10.014;2022-11-20T04:51:14;0.90;99.90
10070;DHT22;5074;53.720;10.014;2022-11-20T04:53:42;0.80;99.90
10070;DHT22;5074;53.720;10.014;2022-11-20T04:56:11;0.80;99.90
10070;DHT22;5074;53.720;10.014;2022-11-20T04:58:40;0.80;99.90
10070;DHT22;5074;53.720;10.014;2022-11-20T05:01:09;0.80;99.90
10070;DHT22;5074;53.720;10.014;2022-11-20T05:03:39;0.80;99.90
10070;DHT22;5074;53.720;10.014;2022-11-20T05:06:10;0.80;99.90
10070;DHT22;5074;53.720;10.014;2022-11-20T05:08:39;0.80;99.90
10070;DHT22;5074;53.720;10.014;2022-11-20T05:11:08;0.80;99.90
10070;DHT22;5074;53.720;10.014;2022-11-20T05:13:40;0.80;99.90
10070;DHT22;5074;53.720;10.014;2022-11-20T05:16:10;0.80;99.90
10070;DHT22;5074;53.720;10.014;2022-11-20T05:18:40;0.80;99.90
10070;DHT22;5074;53.720;10.014;2022-11-20T05:21:10;0.80;99.90
10070;DHT22;5074;53.720;10.014;2022-11-20T05:23:39;0.80;99.90
10070;DHT22;5074;53.720;10.014;2022-11-20T05:26:08;0.80;99.90
10070;DHT22;5074;53.720;10.014;2022-11-20T05:28:40;0.80;99.90
10070;DHT22;5074;53.720;10.014;2022-11-20T05:31:09;0.80;99.90
10070;DHT22;5074;53.720;10.014;2022-11-20T05:33:39;0.80;99.90
10070;DHT22;5074;53.720;10.014;2022-11-20T05:36:10;0.80;99.90
10070;DHT22;5074;53.720;10.014;2022-11-20T05:38:39;0.80;99.90
10070;DHT22;5074;53.720;10.014;2022-11-20T05:41:09;0.80;99.90
10070;DHT22;5074;53.720;10.014;2022-11-20T05:43:39;0.80;99.90
10070;DHT22;5074;53.720;10.014;2022-11-20T05:46:09;0.80;99.90
10070;DHT22;5074;53.720;10.014;2022-11-20T05:48:39;0.80;99.90
10070;DHT22;5074;53.720;10.014;2022-11-20T05:51:11;0.70;99.90
10070;DHT22;5074;53.720;10.014;2022-11-20T05:53:42;0.70;99.90
10070;DHT22;5074;53.720;10.014;2022-11-20T05:56:15;0.70;99.90
10070;DHT22;5074;53.720;10.014;2022-11-20T05:58:44;0.60;99.90
10070;DHT22;5074;53.720;10.014;2022-11-20T06:01:16;0.60;99.90
10070;DHT22;5074;53.720;10.014;2022-11-20T06:03:48;0.60;99.90
10070;DHT22;5074;53.720;10.014;2022-11-20T06:06:18;0.70;99.90
10070;DHT22;5074;53.720;10.014;2022-11-20T06:08:47;0.60;99.90
10070;DHT22;5074;53.720;10.014;2022-11-20T06:11:16;0.60;99.90
10070;DHT22;5074;53.720;10.014;2022-11-20T06:13:44;0.60;99.90
10070;DHT22;5074;53.720;10.014;2022-11-20T06:16:13;0.60;99.90
10070;DHT22;5074;53.720;10.014;2022-11-20T06:18:42;0.60;99.90
10070;DHT22;5074;53.720;10.014;2022-11-20T06:21:11;0.50;99.90
10070;DHT22;5074;53.720;10.014;2022-11-20T06:23:42;0.50;99.90
10070;DHT22;5074;53.720;10.014;2022-11-20T06:26:12;0.50;99.90
10070;DHT22;5074;53.720;10.014;2022-11-20T06:28:41;0.50;99.90
10070;DHT22;5074;53.720;10.014;2022-11-20T06:31:10;0.50;99.90
10070;DHT22;5074;53.720;10.014;2022-11-20T06:33:39;0.50;99.90
10070;DHT22;5074;53.720;10.014;2022-11-20T06:36:09;0.60;99.90
10070;DHT22;5074;53.720;10.014;2022-11-20T06:38:38;0.60;99.90
10070;DHT22;5074;53.720;10.014;2022-11-20T06:41:10;0.60;99.90
10070;DHT22;5074;53.720;10.014;2022-11-20T06:43:38;0.60;99.90
10070;DHT22;5074;53.720;10.014;2022-11-20T06:46:06;0.70;99.90
10070;DHT22;5074;53.720;10.014;2022-11-20T06:48:36;0.70;99.90
10070;DHT22;5074;53.720;10.014;2022-11-20T06:51:04;0.70;99.90
10070;DHT22;5074;53.720;10.014;2022-11-20T06:53:33;0.70;99.90
10070;DHT22;5074;53.720;10.014;2022-11-20T06:56:01;0.70;99.90
10070;DHT22;5074;53.720;10.014;2022-11-20T06:58:32;0.70;99.90
10070;DHT22;5074;53.720;10.014;2022-11-20T07:01:02;0.70;99.90
10070;DHT22;5074;53.720;10.014;2022-11-20T07:03:31;0.70;99.90
10070;DHT22;5074;53.720;10.014;2022-11-20T07:06:00;0.70;99.90
10070;DHT22;5074;53.720;10.014;2022-11-20T07:08:29;0.70;99.90
10070;DHT22;5074;53.720;10.014;2022-11-20T07:10:57;0.80;99.90
10070;DHT22;5074;53.720;10.014;2022-11-20T07:13:27;0.80;99.90
10070;DHT22;5074;53.720;10.014;2022-11-20T07:16:00;0.80;99.90
10070;DHT22;5074;53.720;10.014;2022-11-20T07:18:28;0.90;99.90
10070;DHT22;5074;53.720;10.014;2022-11-20T07:20:59;1.00;99.90
10070;DHT22;5074;53.720;10.014;2022-11-20T07:23:27;1.00;99.90
10070;DHT22;5074;53.720;10.014;2022-11-20T07:25:55;0.90;99.90
10070;DHT22;5074;53.720;10.014;2022-11-20T07:28:23;0.90;99.90
10070;DHT22;5074;53.720;10.014;2022-11-20T07:30:52;0.90;99.90
10070;DHT22;5074;53.720;10.014;2022-11-20T07:33:22;0.90;99.90
10070;DHT22;5074;53.720;10.014;2022-11-20T07:35:50;0.90;99.90
10070;DHT22;5074;53.720;10.014;2022-11-20T07:38:19;0.80;99.90
10070;DHT22;5074;53.720;10.014;2022-11-20T07:40:47;0.80;99.90
10070;DHT22;5074;53.720;10.014;2022-11-20T07:43:15;0.80;99.90
10070;DHT22;5074;53.720;10.014;2022-11-20T07:45:43;0.80;99.90
10070;DHT22;5074;53.720;10.014;2022-11-20T07:48:11;0.90;99.90
10070;DHT22;5074;53.720;10.014;2022-11-20T07:50:40;0.90;99.90
10070;DHT22;5074;53.720;10.014;2022-11-20T07:53:08;0.90;99.90
10070;DHT22;5074;53.720;10.014;2022-11-20T07:55:36;0.90;99.90
10070;DHT22;5074;53.720;10.014;2022-11-20T07:58:04;0.90;99.90
10070;DHT22;5074;53.720;10.014;2022-11-20T08:00:32;0.90;99.90
10070;DHT22;5074;53.720;10.014;2022-11-20T08:03:02;0.90;99.90
10070;DHT22;5074;53.720;10.014;2022-11-20T08:05:30;0.90;99.90
10070;DHT22;5074;53.720;10.014;2022-11-20T08:08:00;0.90;99.90
10070;DHT22;5074;53.720;10.014;2022-11-20T08:10:28;0.90;99.90
10070;DHT22;5074;53.720;10.014;2022-11-20T08:12:56;0.90;99.90
10070;DHT22;5074;53.720;10.014;2022-11-20T08:15:47;0.90;99.90
10070;DHT22;5074;53.720;10.014;2022-11-20T08:18:17;0.90;99.90
10070;DHT22;5074;53.720;10.014;2022-11-20T08:21:04;1.00;99.90
10070;DHT22;5074;53.720;10.014;2022-11-20T08:23:33;1.00;99.90
10070;DHT22;5074;53.720;10.014;2022-11-20T08:26:02;1.00;99.90
10070;DHT22;5074;53.720;10.014;2022-11-20T08:28:32;1.00;99.90
10070;DHT22;5074;53.720;10.014;2022-11-20T08:31:00;0.90;99.90
10070;DHT22;5074;53.720;10.014;2022-11-20T08:33:29;0.90;99.90
10070;DHT22;5074;53.720;10.014;2022-11-20T08:35:59;0.90;99.90
10070;DHT22;5074;53.720;10.014;2022-11-20T08:38:28;0.90;99.90
10070;DHT22;5074;53.720;10.014;2022-11-20T08:40:58;0.90;99.90
10070;DHT22;5074;53.720;10.014;2022-11-20T08:43:43;0.90;99.90
10070;DHT22;5074;53.720;10.014;2022-11-20T08:46:11;0.90;99.90
10070;DHT22;5074;53.720;10.014;2022-11-20T08:48:39;0.90;99.90
10070;DHT22;5074;53.720;10.014;2022-11-20T08:51:08;0.90;99.90
10070;DHT22;5074;53.720;10.014;2022-11-20T08:53:36;1.00;99.90
10070;DHT22;5074;53.720;10.014;2022-11-20T08:56:06;1.00;99.90
10070;DHT22;5074;53.720;10.014;2022-11-20T08:58:36;1.00;99.90
10070;DHT22;5074;53.720;10.014;2022-11-20T09:01:24;1.10;99.90
10070;DHT22;5074;53.720;10.014;2022-11-20T09:03:54;1.10;99.90
10070;DHT22;5074;53.720;10.014;2022-11-20T09:06:22;1.10;99.90
10070;DHT22;5074;53.720;10.014;2022-11-20T09:08:51;1.10;99.90
10070;DHT22;5074;53.720;10.014;2022-11-20T09:11:21;1.10;99.90
10070;DHT22;5074;53.720;10.014;2022-11-20T09:13:49;1.20;99.90
10070;DHT22;5074;53.720;10.014;2022-11-20T09:16:17;1.20;99.90
10070;DHT22;5074;53.720;10.014;2022-11-20T09:18:45;1.30;99.90
10070;DHT22;5074;53.720;10.014;2022-11-20T09:21:32;1.30;99.90
10070;DHT22;5074;53.720;10.014;2022-11-20T09:24:01;1.40;99.90
10070;DHT22;5074;53.720;10.014;2022-11-20T09:26:30;1.40;99.90
10070;DHT22;5074;53.720;10.014;2022-11-20T09:28:58;1.40;99.90
10070;DHT22;5074;53.720;10.014;2022-11-20T09:31:26;1.30;99.90
10070;DHT22;5074;53.720;10.014;2022-11-20T09:33:54;1.30;99.90
10070;DHT22;5074;53.720;10.014;2022-11-20T09:36:22;1.30;99.90
10070;DHT22;5074;53.720;10.014;2022-11-20T09:38:50;1.30;99.90
10070;DHT22;5074;53.720;10.014;2022-11-20T09:41:25;1.30;99.90
10070;DHT22;5074;53.720;10.014;2022-11-20T09:44:19;1.30;99.90
10070;DHT22;5074;53.720;10.014;2022-11-20T09:47:02;1.30;99.90
10070;DHT22;5074;53.720;10.014;2022-11-20T09:49:44;1.40;99.90
10070;DHT22;5074;53.720;10.014;2022-11-20T09:52:28;1.40;99.90
10070;DHT22;5074;53.720;10.014;2022-11-20T09:55:06;1.40;99.90
10070;DHT22;5074;53.720;10.014;2022-11-20T09:57:39;1.30;99.90
10070;DHT22;5074;53.720;10.014;2022-11-20T10:00:13;1.30;99.90
10070;DHT22;5074;53.720;10.014;2022-11-20T10:02:42;1.40;99.90
10070;DHT22;5074;53.720;10.014;2022-11-20T10:05:17;1.40;99.90
10070;DHT22;5074;53.720;10.014;2022-11-20T10:07:48;1.40;99.90
10070;DHT22;5074;53.720;10.014;2022-11-20T10:10:27;1.40;99.90
10070;DHT22;5074;53.720;10.014;2022-11-20T10:13:13;1.40;99.90
10070;DHT22;5074;53.720;10.014;2022-11-20T10:16:01;1.40;99.90
10070;DHT22;5074;53.720;10.014;2022-11-20T10:18:41;1.40;99.90
10070;DHT22;5074;53.720;10.014;2022-11-20T10:21:23;1.50;99.90
10070;DHT22;5074;53.720;10.014;2022-11-20T10:24:02;1.50;99.90
10070;DHT22;5074;53.720;10.014;2022-11-20T10:26:49;1.50;99.90
10070;DHT22;5074;53.720;10.014;2022-11-20T10:29:27;1.50;99.90
10070;DHT22;5074;53.720;10.014;2022-11-20T10:32:00;1.60;99.90
10070;DHT22;5074;53.720;10.014;2022-11-20T10:34:31;1.60;99.90
10070;DHT22;5074;53.720;10.014;2022-11-20T10:37:09;1.60;99.90
10070;DHT22;5074;53.720;10.014;2022-11-20T10:39:41;1.60;99.90
10070;DHT22;5074;53.720;10.014;2022-11-20T10:42:22;1.70;99.90
10070;DHT22;5074;53.720;10.014;2022-11-20T10:44:58;1.80;99.90
10070;DHT22;5074;53.720;10.014;2022-11-20T10:47:37;1.80;99.90
10070;DHT22;5074;53.720;10.014;2022-11-20T10:50:08;1.90;99.90
10070;DHT22;5074;53.720;10.014;2022-11-20T10:52:49;1.80;99.90
10070;DHT22;5074;53.720;10.014;2022-11-20T10:55:25;1.80;99.90
10070;DHT22;5074;53.720;10.014;2022-11-20T10:58:00;1.80;99.90
10070;DHT22;5074;53.720;10.014;2022-11-20T11:00:34;1.80;99.90
10070;DHT22;5074;53.720;10.014;2022-11-20T11:03:07;1.80;99.90
10070;DHT22;5074;53.720;10.014;2022-11-20T11:05:48;1.90;99.90
10070;DHT22;5074;53.720;10.014;2022-11-20T11:08:19;1.90;99.90
10070;DHT22;5074;53.720;10.014;2022-11-20T11:10:47;2.00;99.90
10070;DHT22;5074;53.720;10.014;2022-11-20T11:13:20;2.00;99.90
10070;DHT22;5074;53.720;10.014;2022-11-20T11:15:51;2.00;99.90
10070;DHT22;5074;53.720;10.014;2022-11-20T11:18:23;2.00;99.90
10070;DHT22;5074;53.720;10.014;2022-11-20T11:20:52;2.00;99.90
10070;DHT22;5074;53.720;10.014;2022-11-20T11:23:27;2.10;99.90
10070;DHT22;5074;53.720;10.014;2022-11-20T11:25:59;2.10;99.90
10070;DHT22;5074;53.720;10.014;2022-11-20T11:28:28;2.10;99.90
10070;DHT22;5074;53.720;10.014;2022-11-20T11:30:57;2.10;99.90
10070;DHT22;5074;53.720;10.014;2022-11-20T11:33:26;2.10;99.90
10070;DHT22;5074;53.720;10.014;2022-11-20T11:35:55;2.20;99.90
10070;DHT22;5074;53.720;10.014;2022-11-20T11:38:28;2.30;99.90
10070;DHT22;5074;53.720;10.014;2022-11-20T11:40:58;2.40;99.90
10070;DHT22;5074;53.720;10.014;2022-11-20T11:43:33;2.40;99.90
10070;DHT22;5074;53.720;10.014;2022-11-20T11:46:26;2.50;99.90
10070;DHT22;5074;53.720;10.014;2022-11-20T11:48:57;2.50;99.90
10070;DHT22;5074;53.720;10.014;2022-11-20T11:51:29;2.60;99.90
10070;DHT22;5074;53.720;10.014;2022-11-20T11:54:03;2.40;99.90
10070;DHT22;5074;53.720;10.014;2022-11-20T11:56:43;2.50;99.90
10070;DHT22;5074;53.720;10.014;2022-11-20T11:59:14;2.50;99.90
10070;DHT22;5074;53.720;10.014;2022-11-20T12:01:52;2.40;99.90
10070;DHT22;5074;53.720;10.014;2022-11-20T12:04:34;2.50;99.90
10070;DHT22;5074;53.720;10.014;2022-11-20T12:07:11;2.60;99.90
10070;DHT22;5074;53.720;10.014;2022-11-20T12:10:03;2.60;99.90
10070;DHT22;5074;53.720;10.014;2022-11-20T12:12:35;2.60;99.90
10070;DHT22;5074;53.720;10.014;2022-11-20T12:15:06;2.60;99.90
10070;DHT22;5074;53.720;10.014;2022-11-20T12:17:39;2.60;99.90
10070;DHT22;5074;53.720;10.014;2022-11-20T12:20:12;2.60;99.90
10070;DHT22;5074;53.720;10.014;2022-11-20T12:22:51;2.60;99.90
10070;DHT22;5074;53.720;10.014;2022-11-20T12:25:24;2.50;99.90
10070;DHT22;5074;53.720;10.014;2022-11-20T12:28:14;2.50;99.90
10070;DHT22;5074;53.720;10.014;2022-11-20T12:30:52;2.50;99.90
10070;DHT22;5074;53.720;10.014;2022-11-20T12:33:35;2.40;99.90
10070;DHT22;5074;53.720;10.014;2022-11-20T12:36:19;2.50;99.90
10070;DHT22;5074;53.720;10.014;2022-11-20T12:39:00;2.60;99.90
10070;DHT22;5074;53.720;10.014;2022-11-20T12:44:48;2.60;99.90
10070;DHT22;5074;53.720;10.014;2022-11-20T12:47:46;2.60;99.90
10070;DHT22;5074;53.720;10.014;2022-11-20T12:50:28;2.70;99.90
10070;DHT22;5074;53.720;10.014;2022-11-20T12:53:25;2.60;99.90
10070;DHT22;5074;53.720;10.014;2022-11-20T12:56:01;2.60;99.90
10070;DHT22;5074;53.720;10.014;2022-11-20T12:58:39;2.70;99.90
10070;DHT22;5074;53.720;10.014;2022-11-20T13:01:18;2.70;99.90
10070;DHT22;5074;53.720;10.014;2022-11-20T13:04:08;2.70;99.90
10070;DHT22;5074;53.720;10.014;2022-11-20T13:06:46;2.70;99.90
10070;DHT22;5074;53.720;10.014;2022-11-20T13:09:15;2.70;99.90
10070;DHT22;5074;53.720;10.014;2022-11-20T13:11:47;2.60;99.90
10070;DHT22;5074;53.720;10.014;2022-11-20T13:14:24;2.60;99.90
10070;DHT22;5074;53.720;10.014;2022-11-20T13:17:00;2.60;99.90
10070;DHT22;5074;53.720;10.014;2022-11-20T13:19:36;2.60;99.90
10070;DHT22;5074;53.720;10.014;2022-11-20T13:22:07;2.70;99.90
10070;DHT22;5074;53.720;10.014;2022-11-20T13:24:36;2.70;99.90
10070;DHT22;5074;53.720;10.014;2022-11-20T13:27:17;2.80;99.90
10070;DHT22;5074;53.720;10.014;2022-11-20T13:29:58;2.80;99.90
10070;DHT22;5074;53.720;10.014;2022-11-20T13:32:28;2.70;99.90
10070;DHT22;5074;53.720;10.014;2022-11-20T13:34:59;2.70;99.90
10070;DHT22;5074;53.720;10.014;2022-11-20T13:37:31;2.60;99.90
10070;DHT22;5074;53.720;10.014;2022-11-20T13:40:19;2.60;99.90
10070;DHT22;5074;53.720;10.014;2022-11-20T13:43:00;2.60;99.90
10070;DHT22;5074;53.720;10.014;2022-11-20T13:45:31;2.70;99.90
10070;DHT22;5074;53.720;10.014;2022-11-20T13:48:01;2.70;99.90
10070;DHT22;5074;53.720;10.014;2022-11-20T13:50:39;2.70;99.90
10070;DHT22;5074;53.720;10.014;2022-11-20T13:53:20;2.70;99.90
10070;DHT22;5074;53.720;10.014;2022-11-20T13:56:00;2.50;99.90
10070;DHT22;5074;53.720;10.014;2022-11-20T13:58:36;2.50;99.90
10070;DHT22;5074;53.720;10.014;2022-11-20T14:01:14;2.50;99.90
10070;DHT22;5074;53.720;10.014;2022-11-20T14:03:45;2.50;99.90
10070;DHT22;5074;53.720;10.014;2022-11-20T14:06:33;2.50;99.90
10070;DHT22;5074;53.720;10.014;2022-11-20T14:09:12;2.50;99.90
10070;DHT22;5074;53.720;10.014;2022-11-20T14:11:45;2.40;99.90
10070;DHT22;5074;53.720;10.014;2022-11-20T14:14:15;2.40;99.90
10070;DHT22;5074;53.720;10.014;2022-11-20T14:16:45;2.50;99.90
10070;DHT22;5074;53.720;10.014;2022-11-20T14:19:22;2.50;99.90
10070;DHT22;5074;53.720;10.014;2022-11-20T14:21:54;2.60;99.90
10070;DHT22;5074;53.720;10.014;2022-11-20T14:24:36;2.60;99.90
10070;DHT22;5074;53.720;10.014;2022-11-20T14:27:04;2.60;99.90
10070;DHT22;5074;53.720;10.014;2022-11-20T14:29:33;2.50;99.90
10070;DHT22;5074;53.720;10.014;2022-11-20T14:32:04;2.50;99.90
10070;DHT22;5074;53.720;10.014;2022-11-20T14:34:33;2.50;99.90
10070;DHT22;5074;53.720;10.014;2022-11-20T14:37:10;2.50;99.90
10070;DHT22;5074;53.720;10.014;2022-11-20T14:39:48;2.50;99.90
10070;DHT22;5074;53.720;10.014;2022-11-20T14:42:19;2.50;99.90
10070;DHT22;5074;53.720;10.014;2022-11-20T14:44:48;2.50;99.90
10070;DHT22;5074;53.720;10.014;2022-11-20T14:47:18;2.50;99.90
10070;DHT22;5074;53.720;10.014;2022-11-20T14:49:49;2.40;99.90
10070;DHT22;5074;53.720;10.014;2022-11-20T14:52:19;2.40;99.90
10070;DHT22;5074;53.720;10.014;2022-11-20T14:54:50;2.40;99.90
10070;DHT22;5074;53.720;10.014;2022-11-20T14:57:21;2.40;99.90
10070;DHT22;5074;53.720;10.014;2022-11-20T14:59:51;2.40;99.90
10070;DHT22;5074;53.720;10.014;2022-11-20T15:02:30;2.40;99.90
10070;DHT22;5074;53.720;10.014;2022-11-20T15:05:00;2.40;99.90
10070;DHT22;5074;53.720;10.014;2022-11-20T15:07:30;2.40;99.90
10070;DHT22;5074;53.720;10.014;2022-11-20T15:10:03;2.40;99.90
10070;DHT22;5074;53.720;10.014;2022-11-20T15:12:32;2.40;99.90
10070;DHT22;5074;53.720;10.014;2022-11-20T15:15:02;2.40;99.90
10070;DHT22;5074;53.720;10.014;2022-11-20T15:17:32;2.40;99.90
10070;DHT22;5074;53.720;10.014;2022-11-20T15:20:03;2.40;99.90
10070;DHT22;5074;53.720;10.014;2022-11-20T15:22:39;2.40;99.90
10070;DHT22;5074;53.720;10.014;2022-11-20T15:25:15;2.40;99.90
10070;DHT22;5074;53.720;10.014;2022-11-20T15:27:45;2.30;99.90
10070;DHT22;5074;53.720;10.014;2022-11-20T15:30:17;2.30;99.90
10070;DHT22;5074;53.720;10.014;2022-11-20T15:32:47;2.20;99.90
10070;DHT22;5074;53.720;10.014;2022-11-20T15:35:15;2.20;99.90
10070;DHT22;5074;53.720;10.014;2022-11-20T15:37:43;2.20;99.90
10070;DHT22;5074;53.720;10.014;2022-11-20T15:40:11;2.20;99.90
10070;DHT22;5074;53.720;10.014;2022-11-20T15:42:41;2.10;99.90
10070;DHT22;5074;53.720;10.014;2022-11-20T15:45:36;2.10;99.90
10070;DHT22;5074;53.720;10.014;2022-11-20T15:48:08;2.10;99.90
10070;DHT22;5074;53.720;10.014;2022-11-20T15:50:41;2.10;99.90
10070;DHT22;5074;53.720;10.014;2022-11-20T15:53:18;2.00;99.90
10070;DHT22;5074;53.720;10.014;2022-11-20T15:55:46;2.00;99.90
10070;DHT22;5074;53.720;10.014;2022-11-20T15:58:15;2.00;99.90
10070;DHT22;5074;53.720;10.014;2022-11-20T16:00:44;2.00;99.90
10070;DHT22;5074;53.720;10.014;2022-11-20T16:03:13;2.00;99.90
10070;DHT22;5074;53.720;10.014;2022-11-20T16:05:42;2.00;99.90
10070;DHT22;5074;53.720;10.014;2022-11-20T16:08:10;2.00;99.90
10070;DHT22;5074;53.720;10.014;2022-11-20T16:10:38;2.00;99.90
10070;DHT22;5074;53.720;10.014;2022-11-20T16:13:11;2.00;99.90
10070;DHT22;5074;53.720;10.014;2022-11-20T16:15:59;2.00;99.90
10070;DHT22;5074;53.720;10.014;2022-11-20T16:18:32;2.00;99.90
10070;DHT22;5074;53.720;10.014;2022-11-20T16:21:00;2.00;99.90